Time;durP1;ratioP1;P1;durP2;ratioP2;P2;SDS_P1;SDS_P2;PMS_P1;PMS_P2;Temp;Humidity;BMP_temperature;BMP_pressure;BME280_temperature;BME280_humidity;BME280_pressure;Samples;Min_cycle;Max_cycle;Signal;HPM_P1;HPM_P2
2024/03/16 00:03:31;;;;;;;5.60;1.60;;;;;;;17.49;59.65;100738.78;10449586;28;20267;-59
2024/03/16 00:08:32;;;;;;;4.75;1.65;;;;;;;17.47;59.38;100731.03;10447946;28;20044;-59
2024/03/16 00:13:34;;;;;;;4.60;1.35;;;;;;;17.46;59.82;100734.00;10449347;28;20041;-59
2024/03/16 00:18:36;;;;;;;4.85;1.50;;;;;;;17.45;59.21;100737.75;10449503;28;20421;-59
2024/03/16 00:23:36;;;;;;;5.68;2.63;;;;;;;17.41;59.80;100742.91;10449142;28;20035;-59
2024/03/16 00:28:37;;;;;;;2.83;1.30;;;;;;;17.43;59.96;100761.38;10449255;28;20032;-58
2024/03/16 00:33:37;;;;;;;7.15;1.83;;;;;;;17.42;60.08;100765.94;10448761;28;20826;-59
2024/03/16 00:38:37;;;;;;;5.28;2.10;;;;;;;17.41;59.71;100745.59;10448030;28;20480;-60
2024/03/16 00:43:38;;;;;;;7.18;1.95;;;;;;;17.40;60.56;100751.19;10448731;28;20021;-59
2024/03/16 00:48:38;;;;;;;3.70;1.87;;;;;;;17.40;58.72;100761.94;10430937;28;20029;-59
2024/03/16 00:53:41;;;;;;;3.37;1.80;;;;;;;17.39;59.16;100766.50;10448307;28;20924;-59
2024/03/16 00:58:41;;;;;;;6.47;1.80;;;;;;;17.42;59.15;100771.31;10447504;28;20795;-59
2024/03/16 01:03:42;;;;;;;4.30;2.13;;;;;;;17.41;59.33;100764.34;10447248;28;20036;-59
2024/03/16 01:08:42;;;;;;;3.10;1.53;;;;;;;17.44;59.94;100779.06;10450517;28;20279;-59
2024/03/16 01:13:43;;;;;;;3.20;1.73;;;;;;;17.47;58.87;100779.28;10468447;28;20306;-59
2024/03/16 01:18:43;;;;;;;6.30;2.33;;;;;;;17.51;60.08;100787.53;10455893;28;20290;-59
2024/03/16 01:23:44;;;;;;;6.25;2.17;;;;;;;17.48;59.26;100791.59;10454893;28;20112;-59
2024/03/16 01:28:45;;;;;;;5.75;1.58;;;;;;;17.46;59.03;100785.72;10454184;28;20025;-59
2024/03/16 01:33:45;;;;;;;5.25;1.80;;;;;;;17.46;59.06;100790.28;10454700;28;20060;-59
2024/03/16 01:38:46;;;;;;;3.60;1.85;;;;;;;17.45;59.87;100799.41;10453876;28;20021;-59
2024/03/16 01:43:47;;;;;;;6.82;2.42;;;;;;;17.43;59.47;100796.22;10454269;28;20115;-59
2024/03/16 01:48:53;;;;;;;3.20;1.95;;;;;;;17.42;59.73;100810.72;10454399;28;20029;-59
2024/03/16 01:53:53;;;;;;;7.88;2.55;;;;;;;17.38;59.78;100797.06;10453744;28;20032;-59
2024/03/16 01:58:53;;;;;;;3.90;1.77;;;;;;;17.41;59.07;100811.78;10453046;28;20051;-58
2024/03/16 02:03:54;;;;;;;4.77;2.50;;;;;;;17.40;59.13;100820.91;10453743;28;20029;-58
2024/03/16 02:08:54;;;;;;;3.42;1.88;;;;;;;17.41;59.68;100812.59;10452708;28;20930;-59
2024/03/16 02:13:55;;;;;;;4.70;1.93;;;;;;;17.41;59.68;100826.00;10451723;28;20056;-58
2024/03/16 02:18:57;;;;;;;4.15;1.88;;;;;;;17.39;59.79;100828.13;10453333;28;20367;-59
2024/03/16 02:23:57;;;;;;;4.35;1.83;;;;;;;17.39;58.71;100822.78;10451365;28;20595;-59
2024/03/16 02:28:59;;;;;;;5.27;2.30;;;;;;;17.38;59.12;100831.91;10452882;28;20029;-59
2024/03/16 02:33:59;;;;;;;6.25;2.38;;;;;;;17.35;59.34;100845.09;10451180;28;20298;-59
2024/03/16 02:39:00;;;;;;;4.45;2.03;;;;;;;17.36;59.80;100857.41;10452205;28;20036;-59
2024/03/16 02:44:00;;;;;;;4.83;2.20;;;;;;;17.37;59.03;100862.47;10452112;28;20365;-59
2024/03/16 02:49:00;;;;;;;4.43;2.17;;;;;;;17.41;59.64;100873.44;10452142;28;20782;-59
2024/03/16 02:54:01;;;;;;;5.03;2.17;;;;;;;17.42;59.83;100894.59;10449928;28;20295;-59
2024/03/16 02:59:01;;;;;;;3.47;2.17;;;;;;;17.45;58.46;100898.59;10451741;28;20029;-59
2024/03/16 03:04:02;;;;;;;3.85;1.70;;;;;;;17.43;59.50;100912.28;10449844;28;20370;-59
2024/03/16 03:09:06;;;;;;;4.38;1.50;;;;;;;17.40;58.66;100920.88;10451112;28;20032;-59
2024/03/16 03:14:07;;;;;;;3.85;1.63;;;;;;;17.37;59.53;100920.63;10450120;28;20037;-59
2024/03/16 03:19:07;;;;;;;6.20;1.97;;;;;;;17.39;59.34;100938.03;10451442;28;20044;-59
2024/03/16 03:24:07;;;;;;;3.07;1.83;;;;;;;17.39;59.09;100954.13;10449093;28;20259;-59
2024/03/16 03:29:08;;;;;;;4.40;1.53;;;;;;;17.41;59.07;100951.19;10449228;28;20317;-59
2024/03/16 03:34:08;;;;;;;4.60;2.40;;;;;;;17.43;58.48;100959.72;10448667;28;20397;-59
2024/03/16 03:39:15;;;;;;;3.83;1.55;;;;;;;17.43;58.42;100962.41;10449073;28;20351;-59
2024/03/16 03:44:23;;;;;;;4.93;1.30;;;;;;;17.40;59.24;100961.06;10449896;28;20056;-59
2024/03/16 03:49:29;;;;;;;3.05;1.20;;;;;;;17.38;59.63;100976.66;10449957;28;20032;-59
2024/03/16 03:54:29;;;;;;;2.65;1.33;;;;;;;17.39;58.27;100988.97;10449534;28;20033;-59
2024/03/16 03:59:30;;;;;;;4.40;1.70;;;;;;;17.41;58.69;101002.91;10450007;28;20025;-59
2024/03/16 04:04:30;;;;;;;6.27;1.77;;;;;;;17.38;59.10;101011.50;10449440;28;20021;-59
2024/03/16 04:09:30;;;;;;;3.30;1.43;;;;;;;17.35;58.47;101022.78;10449806;28;20287;-59
2024/03/16 04:14:30;;;;;;;4.27;1.70;;;;;;;17.34;58.37;101041.81;10446457;28;20302;-59
2024/03/16 04:19:31;;;;;;;2.42;1.33;;;;;;;17.36;57.74;101043.13;10431426;28;21101;-59
2024/03/16 04:24:32;;;;;;;2.73;1.67;;;;;;;17.37;58.60;101049.28;10448561;28;20025;-60
2024/03/16 04:29:32;;;;;;;2.43;0.90;;;;;;;17.36;58.84;101061.09;10447756;28;20306;-60
2024/03/16 04:34:32;;;;;;;2.00;1.03;;;;;;;17.36;58.04;101072.63;10448070;28;20302;-59
2024/03/16 04:39:33;;;;;;;2.33;1.37;;;;;;;17.42;57.90;101078.75;10455912;28;20273;-60
2024/03/16 04:44:33;;;;;;;2.20;1.00;;;;;;;17.39;57.48;101101.53;10456464;28;20278;-59
2024/03/16 04:49:33;;;;;;;3.87;1.30;;;;;;;17.35;58.71;101113.91;10456815;28;20365;-59
2024/03/16 04:54:34;;;;;;;2.70;1.45;;;;;;;17.33;58.43;101120.63;10454616;28;20033;-60
2024/03/16 04:59:34;;;;;;;5.97;1.97;;;;;;;17.32;58.93;101127.88;10456344;28;20076;-59
2024/03/16 05:04:34;;;;;;;1.53;0.67;;;;;;;17.36;58.65;101133.47;10455819;28;20357;-59
2024/03/16 05:09:35;;;;;;;3.10;0.90;;;;;;;17.34;58.23;101149.84;10456055;28;20295;-59
2024/03/16 05:14:35;;;;;;;2.40;1.20;;;;;;;17.32;58.82;101161.91;10453775;28;20299;-59
2024/03/16 05:19:35;;;;;;;1.65;0.90;;;;;;;17.28;58.80;101158.97;10442194;28;20021;-59
2024/03/16 05:24:36;;;;;;;2.43;1.03;;;;;;;17.32;58.31;101176.13;10455172;28;20103;-59
2024/03/16 05:29:36;;;;;;;2.57;0.90;;;;;;;17.35;58.46;101190.84;10455249;28;20310;-59
2024/03/16 05:34:39;;;;;;;2.20;1.33;;;;;;;17.39;57.37;101191.88;10454528;28;20283;-59
2024/03/16 05:39:40;;;;;;;2.95;1.13;;;;;;;17.37;58.66;101208.25;10452570;28;20286;-60
2024/03/16 05:44:40;;;;;;;2.67;1.23;;;;;;;17.39;57.10;101216.81;10449647;28;20162;-59
2024/03/16 05:49:41;;;;;;;2.30;1.00;;;;;;;17.36;58.00;101244.16;10449754;28;20031;-59
2024/03/16 05:54:41;;;;;;;1.90;0.83;;;;;;;17.32;57.29;101261.09;10445852;28;21469;-59
2024/03/16 05:59:41;;;;;;;2.57;0.87;;;;;;;17.37;58.22;101269.91;10447818;28;20037;-59
2024/03/16 06:04:41;;;;;;;1.85;0.70;;;;;;;17.36;57.49;101273.66;10451497;28;20580;-59
2024/03/16 06:09:42;;;;;;;2.10;0.80;;;;;;;17.30;58.04;101301.56;10453209;28;20048;-59
2024/03/16 06:14:42;;;;;;;1.48;0.73;;;;;;;17.35;57.63;101320.31;10452651;28;20306;-58
2024/03/16 06:19:42;;;;;;;2.47;0.90;;;;;;;17.43;56.77;101327.78;10453160;28;20447;-59
2024/03/16 06:24:45;;;;;;;1.97;0.70;;;;;;;17.44;58.28;101342.00;10449393;28;20033;-59
2024/03/16 06:29:55;;;;;;;1.67;0.80;;;;;;;17.43;57.69;101349.25;10452000;28;20287;-59
2024/03/16 06:34:56;;;;;;;2.40;1.20;;;;;;;17.40;56.80;101359.69;10450769;28;20229;-59
2024/03/16 06:39:56;;;;;;;2.42;1.15;;;;;;;17.40;57.22;101365.84;10450686;28;20025;-59
2024/03/16 06:44:57;;;;;;;1.58;0.80;;;;;;;17.44;56.89;101391.06;10451354;28;20019;-60
2024/03/16 06:49:57;;;;;;;1.35;0.70;;;;;;;17.43;57.84;101394.81;10452051;28;20037;-59
2024/03/16 06:54:57;;;;;;;4.30;0.70;;;;;;;17.42;56.87;101421.91;10451332;28;20465;-59
2024/03/16 06:59:57;;;;;;;3.43;0.80;;;;;;;17.38;57.07;101423.50;10450980;28;20276;-59
2024/03/16 07:05:00;;;;;;;2.80;0.70;;;;;;;17.34;57.04;101444.69;10451213;28;20021;-59
2024/03/16 07:10:01;;;;;;;1.52;0.70;;;;;;;17.35;58.30;101457.00;10449134;28;20365;-59
2024/03/16 07:15:01;;;;;;;7.65;1.13;;;;;;;17.48;58.74;101466.38;10449343;28;20106;-59
2024/03/16 07:20:02;;;;;;;4.90;1.97;;;;;;;17.54;59.92;101484.88;10451039;28;20035;-63
2024/03/16 07:25:03;;;;;;;7.35;2.00;;;;;;;17.61;60.12;101491.84;10450185;28;20270;-63
2024/03/16 07:30:04;;;;;;;17.10;2.55;;;;;;;17.62;59.73;101507.66;10449289;28;20399;-62
2024/03/16 07:35:06;;;;;;;10.07;2.40;;;;;;;17.61;60.44;101521.34;10432037;28;20059;-61
2024/03/16 07:40:13;;;;;;;16.38;2.83;;;;;;;17.56;60.12;101532.88;10448949;28;20039;-60
2024/03/16 07:45:14;;;;;;;15.55;3.20;;;;;;;17.60;60.62;101543.88;10445881;28;20020;-59
2024/03/16 07:50:14;;;;;;;21.05;2.88;;;;;;;17.52;60.12;101547.88;10449485;28;20075;-60
2024/03/16 07:55:15;;;;;;;16.63;2.60;;;;;;;17.49;60.36;101572.56;10449246;28;20104;-58
2024/03/16 08:00:15;;;;;;;23.37;6.13;;;;;;;17.48;62.10;101570.94;10448875;28;20363;-59
2024/03/16 08:05:15;;;;;;;12.82;3.00;;;;;;;17.42;60.82;101577.38;10447230;28;20358;-59
2024/03/16 08:10:16;;;;;;;16.97;4.03;;;;;;;17.37;60.96;101585.41;10450919;28;20021;-59
2024/03/16 08:15:17;;;;;;;15.00;3.60;;;;;;;17.42;61.35;101593.47;10455039;28;20307;-61
2024/03/16 08:20:18;;;;;;;14.40;2.58;;;;;;;17.42;60.10;101601.53;10457123;28;20013;-59
2024/03/16 08:25:18;;;;;;;16.08;2.58;;;;;;;17.32;60.76;101612.22;10456840;28;20044;-58
2024/03/16 08:30:18;;;;;;;12.53;2.77;;;;;;;17.27;60.41;101621.03;10457253;28;20025;-57
2024/03/16 08:35:19;;;;;;;6.47;2.30;;;;;;;17.19;59.73;101629.59;10455800;28;20646;-59
2024/03/16 08:40:20;;;;;;;10.27;2.15;;;;;;;17.18;59.48;101644.09;10455790;28;20271;-59
2024/03/16 08:45:20;;;;;;;16.73;2.88;;;;;;;17.20;59.36;101649.97;10456667;28;20017;-58
2024/03/16 08:50:21;;;;;;;9.83;2.20;;;;;;;17.20;59.77;101656.16;10456836;28;20029;-59
2024/03/16 08:55:22;;;;;;;13.45;2.63;;;;;;;17.13;60.76;101666.28;10455737;28;20287;-57
2024/03/16 09:00:22;;;;;;;29.30;2.70;;;;;;;17.13;59.38;101668.97;10454194;28;20028;-58
2024/03/16 09:05:22;;;;;;;6.07;1.67;;;;;;;17.18;58.73;101671.69;10455489;28;20032;-60
2024/03/16 09:10:23;;;;;;;15.37;3.07;;;;;;;17.19;58.93;101675.97;10453270;28;20631;-58
2024/03/16 09:15:23;;;;;;;17.80;2.90;;;;;;;17.18;59.79;101681.59;10453114;28;20303;-58
2024/03/16 09:20:23;;;;;;;22.17;3.60;;;;;;;17.12;59.29;101694.16;10453545;28;20267;-59
2024/03/16 09:25:24;;;;;;;16.00;2.73;;;;;;;17.15;58.71;101696.31;10454177;28;20396;-59
2024/03/16 09:30:24;;;;;;;13.02;2.83;;;;;;;17.16;59.01;101711.31;10453158;28;20370;-58
2024/03/16 09:35:26;;;;;;;17.03;2.60;;;;;;;17.19;58.28;101724.22;10454192;28;20029;-59
2024/03/16 09:40:26;;;;;;;10.20;2.28;;;;;;;17.20;57.97;101738.41;10451605;28;20276;-59
2024/03/16 09:45:28;;;;;;;11.45;2.78;;;;;;;17.18;58.29;101746.72;10451210;28;20675;-61
2024/03/16 09:50:29;;;;;;;15.38;3.17;;;;;;;17.29;59.26;101742.22;10451305;28;20021;-59
2024/03/16 09:55:29;;;;;;;15.60;3.03;;;;;;;17.26;58.33;101753.44;10448977;28;20053;-58
2024/03/16 10:00:31;;;;;;;12.90;2.80;;;;;;;17.21;58.90;101761.47;10452101;28;20108;-60
2024/03/16 10:05:32;;;;;;;19.77;2.67;;;;;;;17.17;58.71;101779.97;10452867;28;20021;-59
2024/03/16 10:10:32;;;;;;;14.32;2.63;;;;;;;17.13;58.08;101783.41;10452436;28;20032;-59
2024/03/16 10:15:45;;;;;;;8.73;2.30;;;;;;;17.14;58.29;101801.09;10452278;28;20033;-59
2024/03/16 10:20:46;;;;;;;5.43;1.75;;;;;;;17.12;58.76;101803.22;10451846;28;20621;-59
2024/03/16 10:25:46;;;;;;;8.35;1.85;;;;;;;17.11;58.76;101809.66;10450657;28;20013;-59
2024/03/16 10:30:48;;;;;;;11.93;2.40;;;;;;;17.10;58.36;101816.09;10451852;28;20473;-59
2024/03/16 10:35:52;;;;;;;7.10;2.03;;;;;;;17.08;58.77;101831.63;10449284;28;20090;-59
2024/03/16 10:40:53;;;;;;;5.90;1.75;;;;;;;17.05;57.82;101832.94;10433195;28;20041;-59
2024/03/16 10:45:54;;;;;;;8.90;2.22;;;;;;;17.06;58.17;101841.78;10450728;28;20422;-58
2024/03/16 10:50:54;;;;;;;6.78;1.63;;;;;;;17.06;57.06;101852.50;10444323;28;20025;-59
2024/03/16 10:55:55;;;;;;;11.57;1.75;;;;;;;17.06;57.07;101869.38;10444403;28;20472;-60
2024/03/16 11:01:01;;;;;;;16.05;3.00;;;;;;;17.19;56.65;101874.31;10449568;28;20032;-59
2024/03/16 11:06:10;;;;;;;13.32;2.92;;;;;;;17.18;57.04;101891.44;10447477;28;20032;-60
2024/03/16 11:11:17;;;;;;;15.50;2.97;;;;;;;17.18;57.43;101896.00;10450524;28;20029;-59
2024/03/16 11:16:27;;;;;;;13.20;5.35;;;;;;;17.26;60.99;101900.88;10449596;28;20020;-59
2024/03/16 11:21:31;;;;;;;13.73;4.07;;;;;;;17.29;59.38;101905.75;10450470;28;20075;-57
2024/03/16 11:26:34;;;;;;;10.50;3.42;;;;;;;17.21;59.26;101907.00;10450150;28;20021;-58
2024/03/16 11:31:38;;;;;;;10.60;3.08;;;;;;;17.26;57.29;101906.22;10420220;28;20578;-58
2024/03/16 11:36:48;;;;;;;11.20;3.38;;;;;;;17.19;58.38;101906.47;10450114;28;20056;-57
2024/03/16 11:41:49;;;;;;;19.63;3.90;;;;;;;17.32;58.58;101905.22;10419680;28;20039;-59
2024/03/16 11:46:49;;;;;;;19.58;3.42;;;;;;;17.45;57.88;101906.63;10432048;28;20078;-59
2024/03/16 11:51:55;;;;;;;20.48;3.90;;;;;;;17.51;57.86;101919.81;10449484;28;20054;-57
2024/03/16 11:56:56;;;;;;;12.13;3.85;;;;;;;17.58;58.88;101924.16;10447930;28;20025;-58
2024/03/16 12:01:56;;;;;;;19.42;4.13;;;;;;;17.61;57.68;101912.88;10447954;28;20435;-57
2024/03/16 12:06:57;;;;;;;36.25;4.57;;;;;;;17.61;58.10;101926.31;10446661;28;20028;-62
2024/03/16 12:11:58;;;;;;;29.23;5.88;;;;;;;17.61;58.92;101928.97;10448178;28;20056;-60
2024/03/16 12:16:59;;;;;;;29.00;5.55;;;;;;;17.64;57.77;101928.44;10447085;28;20025;-55
2024/03/16 12:21:59;;;;;;;45.40;6.95;;;;;;;17.44;58.65;101934.50;10445826;28;20041;-62
2024/03/16 12:27:05;;;;;;;20.58;5.05;;;;;;;17.33;57.93;101952.41;10431022;28;20466;-59
2024/03/16 12:32:05;;;;;;;16.98;4.10;;;;;;;17.28;58.06;101943.50;10436163;28;20040;-59
2024/03/16 12:37:07;;;;;;;16.48;4.25;;;;;;;17.23;58.48;101950.44;10449220;28;20032;-58
2024/03/16 12:42:08;;;;;;;18.63;4.57;;;;;;;17.20;57.65;101950.97;10446898;28;20104;-59
2024/03/16 12:47:08;;;;;;;22.98;4.18;;;;;;;17.19;58.48;101954.72;10447542;28;20179;-59
2024/03/16 12:52:12;;;;;;;19.00;3.30;;;;;;;17.17;58.56;101962.19;10447290;28;20121;-59
2024/03/16 12:57:12;;;;;;;17.33;4.05;;;;;;;17.14;58.26;101962.69;10448857;28;20783;-59
2024/03/16 13:02:12;;;;;;;11.00;3.03;;;;;;;17.13;58.51;101971.00;10453812;28;20017;-58
2024/03/16 13:07:14;;;;;;;12.30;2.80;;;;;;;17.10;57.67;101974.19;10455882;28;20297;-60
2024/03/16 13:12:14;;;;;;;9.88;2.92;;;;;;;17.09;57.71;101973.38;10454747;28;20770;-60
2024/03/16 13:17:15;;;;;;;12.20;3.63;;;;;;;17.12;58.03;101975.53;10453859;28;20025;-60
2024/03/16 13:22:16;;;;;;;10.80;2.97;;;;;;;17.12;57.72;101988.13;10454147;28;20458;-59
2024/03/16 13:27:16;;;;;;;8.20;2.58;;;;;;;17.12;56.98;101978.22;10454401;28;20028;-59
2024/03/16 13:32:16;;;;;;;6.93;2.03;;;;;;;17.11;57.82;101975.81;10453741;28;20555;-59
2024/03/16 13:37:17;;;;;;;7.27;2.50;;;;;;;17.17;57.70;101977.47;10454054;28;20291;-59
2024/03/16 13:42:17;;;;;;;8.00;2.23;;;;;;;17.14;57.54;101977.97;10453325;28;20726;-59
2024/03/16 13:47:21;;;;;;;12.80;3.38;;;;;;;17.12;58.17;101980.09;10452296;28;20358;-60
2024/03/16 13:52:21;;;;;;;7.93;2.63;;;;;;;17.09;57.63;101989.47;10452881;28;20025;-59
2024/03/16 13:57:22;;;;;;;9.15;2.53;;;;;;;17.07;58.17;101998.81;10451847;28;20025;-59
2024/03/16 14:02:23;;;;;;;7.45;2.67;;;;;;;17.05;58.40;101996.41;10451754;28;20060;-59
2024/03/16 14:07:23;;;;;;;13.10;4.05;;;;;;;17.03;57.14;102000.38;10444369;28;20013;-61
2024/03/16 14:12:23;;;;;;;9.33;2.77;;;;;;;17.00;57.27;102009.72;10453227;28;20049;-59
2024/03/16 14:17:24;;;;;;;13.10;2.92;;;;;;;17.04;56.97;102008.16;10453045;28;20287;-63
2024/03/16 14:22:25;;;;;;;13.18;3.40;;;;;;;17.14;57.40;102008.25;10447033;28;20308;-62
2024/03/16 14:27:26;;;;;;;12.48;3.55;;;;;;;17.19;57.79;102016.34;10450791;28;20039;-62
2024/03/16 14:32:26;;;;;;;6.78;2.58;;;;;;;17.22;57.78;102002.44;10450534;28;20023;-66
2024/03/16 14:37:27;;;;;;;9.27;3.23;;;;;;;17.24;57.78;102012.91;10450142;28;20025;-61
2024/03/16 14:42:27;;;;;;;13.90;2.50;;;;;;;17.26;58.37;102010.78;10451869;28;20297;-60
2024/03/16 14:47:29;;;;;;;13.20;3.42;;;;;;;17.27;58.14;102019.63;10451885;28;20476;-61
2024/03/16 14:52:29;;;;;;;13.13;3.85;;;;;;;17.24;57.56;102029.78;10449422;28;20040;-61
2024/03/16 14:57:31;;;;;;;11.17;2.93;;;;;;;17.31;58.47;102018.06;10451477;28;20040;-61
2024/03/16 15:02:34;;;;;;;18.45;4.05;;;;;;;17.28;57.23;102016.69;10451013;28;20646;-62
2024/03/16 15:07:34;;;;;;;12.50;3.42;;;;;;;17.29;57.95;102014.84;10432702;28;20032;-60
2024/03/16 15:12:35;;;;;;;10.65;2.80;;;;;;;17.26;57.80;102016.13;10434171;28;20048;-58
2024/03/16 15:17:35;;;;;;;17.13;4.88;;;;;;;17.19;57.71;102020.91;10449602;28;20021;-58
2024/03/16 15:22:36;;;;;;;20.92;3.72;;;;;;;17.17;57.43;102029.22;10431469;28;20057;-57
2024/03/16 15:27:54;;;;;;;12.98;3.55;;;;;;;17.15;58.65;102017.09;10449592;28;20020;-57
2024/03/16 15:32:55;;;;;;;19.15;4.15;;;;;;;17.16;58.01;102008.81;10448978;28;20025;-57
2024/03/16 15:37:55;;;;;;;12.03;2.93;;;;;;;17.17;57.70;102023.03;10449809;28;20043;-58
2024/03/16 15:42:58;;;;;;;17.25;3.08;;;;;;;17.16;57.11;102024.06;10448644;28;20283;-58
2024/03/16 15:47:58;;;;;;;18.27;4.93;;;;;;;17.18;57.53;102027.34;10448750;28;20457;-58
2024/03/16 15:52:58;;;;;;;10.07;2.67;;;;;;;17.16;57.12;102024.06;10447453;28;20029;-60
2024/03/16 15:57:59;;;;;;;11.13;3.67;;;;;;;17.14;56.44;102037.72;10446872;28;20673;-59
2024/03/16 16:02:59;;;;;;;11.87;2.50;;;;;;;17.13;55.33;102046.84;10448164;28;20283;-58
2024/03/16 16:08:00;;;;;;;10.23;2.83;;;;;;;17.11;56.63;102042.81;10448788;28;20311;-59
2024/03/16 16:13:00;;;;;;;9.55;2.55;;;;;;;17.12;55.13;102053.25;10444920;28;20655;-57
2024/03/16 16:18:01;;;;;;;21.60;3.03;;;;;;;17.11;55.04;102057.00;10446509;28;20098;-59
2024/03/16 16:23:02;;;;;;;10.17;3.17;;;;;;;17.09;55.87;102053.78;10447156;28;20070;-61
2024/03/16 16:28:05;;;;;;;12.75;2.72;;;;;;;17.07;56.05;102058.59;10447150;28;20282;-61
2024/03/16 16:33:06;;;;;;;6.60;2.33;;;;;;;17.02;55.47;102071.09;10446928;28;20029;-59
2024/03/16 16:38:06;;;;;;;25.60;8.68;;;;;;;17.04;55.31;102060.94;10454934;28;20033;-59
2024/03/16 16:43:06;;;;;;;23.00;5.03;;;;;;;17.08;53.88;102072.78;10450592;28;20535;-59
2024/03/16 16:48:07;;;;;;;13.10;4.50;;;;;;;17.19;52.68;102067.28;10445876;28;20029;-57
2024/03/16 16:53:10;;;;;;;12.68;3.08;;;;;;;17.47;53.20;102074.25;10449863;28;20268;-60
2024/03/16 16:58:10;;;;;;;12.20;3.10;;;;;;;17.62;53.01;102070.88;10451649;28;20710;-59
2024/03/16 17:03:10;;;;;;;10.30;3.13;;;;;;;17.77;53.50;102079.09;10450875;28;20021;-60
2024/03/16 17:08:11;;;;;;;13.35;5.25;;;;;;;17.86;54.73;102087.44;10445099;28;20264;-60
2024/03/16 17:13:11;;;;;;;7.85;3.50;;;;;;;17.91;52.84;102092.06;10453938;28;20044;-60
2024/03/16 17:18:12;;;;;;;11.17;3.57;;;;;;;17.95;53.74;102098.53;10454964;28;20037;-59
2024/03/16 17:23:12;;;;;;;13.20;2.88;;;;;;;17.96;57.35;102114.38;10453920;28;20313;-60
2024/03/16 17:28:13;;;;;;;9.97;2.93;;;;;;;17.96;58.80;102117.06;10453950;28;20009;-60
2024/03/16 17:33:15;;;;;;;14.70;3.47;;;;;;;18.17;56.47;102119.88;10438163;28;20731;-61
2024/03/16 17:38:16;;;;;;;9.35;2.50;;;;;;;18.10;56.01;102123.59;10451859;28;20082;-60
2024/03/16 17:43:16;;;;;;;7.15;2.40;;;;;;;18.05;54.01;102126.25;10452260;28;20472;-60
2024/03/16 17:48:16;;;;;;;9.00;3.00;;;;;;;17.99;54.24;102121.91;10451416;28;20024;-61
2024/03/16 17:53:17;;;;;;;12.73;2.87;;;;;;;17.95;54.79;102126.16;10450487;28;20311;-61
2024/03/16 17:58:18;;;;;;;6.55;2.05;;;;;;;17.92;54.84;102128.56;10443751;28;20295;-61
2024/03/16 18:03:18;;;;;;;10.67;2.20;;;;;;;17.89;54.57;102129.09;10450400;28;20025;-61
2024/03/16 18:08:18;;;;;;;25.15;3.92;;;;;;;17.89;54.81;102129.91;10443934;28;20268;-57
2024/03/16 18:13:19;;;;;;;21.80;5.87;;;;;;;17.83;55.59;102133.59;10440849;28;20041;-59
2024/03/16 18:18:20;;;;;;;17.60;3.90;;;;;;;17.78;55.41;102142.41;10445095;28;20292;-59
2024/03/16 18:23:20;;;;;;;15.13;4.20;;;;;;;17.72;55.23;102146.09;10440417;28;20313;-58
2024/03/16 18:28:25;;;;;;;17.52;4.50;;;;;;;17.65;54.89;102155.41;10452864;28;20095;-58
2024/03/16 18:33:25;;;;;;;13.60;4.70;;;;;;;17.59;56.04;102151.84;10452508;28;20665;-59
2024/03/16 18:38:25;;;;;;;14.10;3.50;;;;;;;17.53;55.34;102151.00;10452530;28;20024;-58
2024/03/16 18:43:26;;;;;;;14.52;3.05;;;;;;;17.50;54.55;102146.13;10452105;28;20283;-58
2024/03/16 18:48:27;;;;;;;14.70;3.70;;;;;;;17.47;54.52;102148.50;10432897;28;20040;-58
2024/03/16 18:53:27;;;;;;;12.80;3.75;;;;;;;17.44;54.64;102149.03;10447116;28;20275;-57
2024/03/16 18:58:27;;;;;;;10.97;3.10;;;;;;;17.39;55.36;102154.31;10449126;28;20018;-59
2024/03/16 19:03:27;;;;;;;12.83;3.63;;;;;;;17.38;55.17;102144.66;10450543;28;20263;-58
2024/03/16 19:08:29;;;;;;;8.43;3.30;;;;;;;17.35;55.41;102159.38;10450565;28;20294;-59
2024/03/16 19:13:29;;;;;;;12.65;3.30;;;;;;;17.33;55.35;102152.66;10442000;28;20298;-59
2024/03/16 19:18:30;;;;;;;11.00;3.20;;;;;;;17.32;54.28;102156.41;10444606;28;20017;-58
2024/03/16 19:23:30;;;;;;;9.83;2.33;;;;;;;17.31;53.55;102155.59;10448167;28;20029;-56
2024/03/16 19:28:30;;;;;;;8.07;2.30;;;;;;;17.30;54.97;102159.34;10437321;28;20633;-56
2024/03/16 19:33:30;;;;;;;12.17;2.60;;;;;;;17.41;54.83;102169.13;10437855;28;20259;-58
2024/03/16 19:38:31;;;;;;;9.63;3.23;;;;;;;17.46;53.76;102163.78;10443323;28;20404;-58
2024/03/16 19:43:31;;;;;;;7.35;2.72;;;;;;;17.51;53.46;102166.50;10439539;28;20845;-59
2024/03/16 19:48:32;;;;;;;8.05;2.83;;;;;;;17.53;53.39;102161.72;10431583;28;20507;-57
2024/03/16 19:53:32;;;;;;;9.80;3.20;;;;;;;17.51;54.00;102174.56;10444972;28;20036;-58
2024/03/16 19:58:32;;;;;;;12.97;2.60;;;;;;;17.46;54.13;102182.56;10441739;28;20559;-58
2024/03/16 20:03:33;;;;;;;11.18;3.10;;;;;;;17.40;54.78;102183.56;10438531;28;20285;-58
2024/03/16 20:08:35;;;;;;;5.65;2.03;;;;;;;17.32;54.95;102178.66;10440486;28;20017;-59
2024/03/16 20:13:35;;;;;;;6.88;3.20;;;;;;;17.29;55.87;102173.00;10438510;28;20046;-57
2024/03/16 20:18:35;;;;;;;5.60;2.40;;;;;;;17.27;54.92;102167.88;10441929;28;20017;-59
2024/03/16 20:23:36;;;;;;;7.10;2.40;;;;;;;17.25;55.09;102176.16;10446092;28;20287;-58
2024/03/16 20:28:36;;;;;;;7.43;3.40;;;;;;;17.25;55.58;102180.72;10445584;28;20271;-57
2024/03/16 20:33:36;;;;;;;9.63;2.55;;;;;;;17.23;55.87;102182.84;10445641;28;20279;-58
2024/03/16 20:38:37;;;;;;;9.63;3.53;;;;;;;17.21;55.19;102169.69;10447352;28;20040;-58
2024/03/16 20:43:37;;;;;;;8.07;3.55;;;;;;;17.24;55.29;102171.06;10447926;28;20029;-57
2024/03/16 20:48:38;;;;;;;9.27;3.47;;;;;;;17.29;54.04;102178.38;10448636;28;20121;-59
2024/03/16 20:53:38;;;;;;;10.55;3.38;;;;;;;17.32;54.63;102170.63;10430969;28;20797;-58
2024/03/16 20:58:39;;;;;;;6.27;2.70;;;;;;;17.35;53.99;102186.19;10447481;28;20029;-58
2024/03/16 21:03:39;;;;;;;13.23;3.80;;;;;;;17.37;54.23;102188.63;10449128;28;20283;-58
2024/03/16 21:08:39;;;;;;;5.67;2.10;;;;;;;17.41;54.08;102179.84;10444157;28;20283;-58
2024/03/16 21:13:40;;;;;;;9.10;4.27;;;;;;;17.40;54.35;102186.22;10448235;28;20299;-58
2024/03/16 21:18:41;;;;;;;5.33;2.77;;;;;;;17.41;53.88;102184.41;10433444;28;20814;-58
2024/03/16 21:23:42;;;;;;;4.68;2.63;;;;;;;17.44;52.62;102187.38;10455548;28;20358;-58
2024/03/16 21:28:42;;;;;;;7.45;2.50;;;;;;;17.46;53.27;102185.25;10453945;28;20048;-57
2024/03/16 21:33:43;;;;;;;7.83;3.27;;;;;;;17.44;52.82;102190.06;10454993;28;20036;-58
2024/03/16 21:38:43;;;;;;;7.25;2.83;;;;;;;17.44;53.72;102189.25;10454646;28;20770;-58
2024/03/16 21:43:44;;;;;;;6.23;2.40;;;;;;;17.48;52.92;102185.81;10449970;28;20508;-58
2024/03/16 21:48:44;;;;;;;10.73;5.80;;;;;;;17.46;52.81;102179.88;10454037;28;20280;-58
2024/03/16 21:53:44;;;;;;;11.98;5.60;;;;;;;17.50;52.10;102186.34;10454908;28;20630;-58
2024/03/16 21:58:45;;;;;;;7.78;4.57;;;;;;;17.47;52.80;102181.50;10452612;28;20540;-58
2024/03/16 22:03:45;;;;;;;9.40;5.00;;;;;;;17.46;52.72;102177.19;10454176;28;20103;-57
2024/03/16 22:08:45;;;;;;;12.93;4.28;;;;;;;17.43;52.15;102187.63;10452250;28;20790;-58
2024/03/16 22:13:46;;;;;;;7.93;4.63;;;;;;;17.41;51.79;102185.19;10453392;28;20049;-58
2024/03/16 22:18:46;;;;;;;7.57;4.30;;;;;;;17.42;51.98;102184.13;10452849;28;20121;-58
2024/03/16 22:23:47;;;;;;;7.00;4.77;;;;;;;17.45;51.22;102177.47;10452759;28;20310;-58
2024/03/16 22:28:47;;;;;;;8.32;5.45;;;;;;;17.45;51.52;102178.25;10451222;28;20647;-58
2024/03/16 22:33:49;;;;;;;8.33;4.10;;;;;;;17.44;51.69;102182.00;10451523;28;20027;-57
2024/03/16 22:38:50;;;;;;;7.15;4.15;;;;;;;17.46;52.27;102195.16;10452308;28;20297;-58
2024/03/16 22:43:50;;;;;;;7.10;3.33;;;;;;;17.44;51.63;102184.69;10452254;28;20021;-58
2024/03/16 22:48:50;;;;;;;8.00;3.60;;;;;;;17.46;52.43;102192.47;10452104;28;20275;-58
2024/03/16 22:53:51;;;;;;;7.17;3.40;;;;;;;17.48;51.65;102195.72;10450221;28;20275;-58
2024/03/16 22:58:55;;;;;;;8.57;4.33;;;;;;;17.46;51.36;102195.97;10451188;28;20306;-58